createdAt,value
2022-09-25T00:01:42.806Z,11.84
2022-09-25T00:04:09.515Z,11.87
2022-09-25T00:06:36.286Z,11.87
2022-09-25T00:09:05.129Z,11.85
2022-09-25T00:11:33.968Z,11.81
2022-09-25T00:14:01.905Z,11.81
2022-09-25T00:16:30.786Z,11.75
2022-09-25T00:19:14.018Z,11.74
2022-09-25T00:21:41.333Z,11.78
2022-09-25T00:24:09.991Z,11.81
2022-09-25T00:26:40.441Z,11.80
2022-09-25T00:29:08.766Z,11.79
2022-09-25T00:31:35.604Z,11.82
2022-09-25T00:34:05.106Z,11.82
2022-09-25T00:36:32.448Z,11.83
2022-09-25T00:39:00.078Z,11.82
2022-09-25T00:41:28.217Z,11.82
2022-09-25T00:43:57.212Z,11.80
2022-09-25T00:46:23.842Z,11.78
2022-09-25T00:48:56.249Z,11.75
2022-09-25T00:51:29.650Z,11.76
2022-09-25T00:54:01.573Z,11.77
2022-09-25T00:56:31.850Z,11.71
2022-09-25T00:58:58.850Z,11.74
2022-09-25T01:01:25.627Z,11.75
2022-09-25T01:03:52.483Z,11.74
2022-09-25T01:06:19.720Z,11.69
2022-09-25T01:08:47.182Z,11.66
2022-09-25T01:11:13.839Z,11.66
2022-09-25T01:13:40.618Z,11.68
2022-09-25T01:16:24.169Z,11.68
2022-09-25T01:19:14.483Z,11.66
2022-09-25T01:22:11.630Z,11.65
2022-09-25T01:24:55.258Z,11.64
2022-09-25T01:27:33.018Z,11.64
2022-09-25T01:30:06.018Z,11.60
2022-09-25T01:32:44.850Z,11.56
2022-09-25T01:35:12.439Z,11.61
2022-09-25T01:38:00.952Z,11.61
2022-09-25T01:40:33.736Z,11.59
2022-09-25T01:43:01.635Z,11.62
2022-09-25T01:45:36.598Z,11.64
2022-09-25T01:48:06.153Z,11.65
2022-09-25T01:50:47.121Z,11.66
2022-09-25T01:53:24.778Z,11.67
2022-09-25T01:55:59.394Z,11.65
2022-09-25T01:58:32.546Z,11.67
2022-09-25T02:01:06.370Z,11.66
2022-09-25T02:03:39.918Z,11.67
2022-09-25T02:06:10.145Z,11.66
2022-09-25T02:08:44.134Z,11.62
2022-09-25T02:11:12.216Z,11.61
2022-09-25T02:13:58.172Z,11.62
2022-09-25T02:16:35.539Z,11.61
2022-09-25T02:19:18.102Z,11.61
2022-09-25T02:21:52.636Z,11.62
2022-09-25T02:24:25.179Z,11.62
2022-09-25T02:26:52.454Z,11.62
2022-09-25T02:29:20.260Z,11.63
2022-09-25T02:31:53.944Z,11.62
2022-09-25T02:34:22.061Z,11.61
2022-09-25T02:36:48.718Z,11.59
2022-09-25T02:39:20.732Z,11.61
2022-09-25T02:42:06.754Z,11.61
2022-09-25T02:44:54.327Z,11.61
2022-09-25T02:47:39.828Z,11.54
2022-09-25T02:50:07.408Z,11.51
2022-09-25T02:52:46.893Z,11.49
2022-09-25T02:55:14.506Z,11.50
2022-09-25T02:57:51.606Z,11.48
2022-09-25T03:00:22.832Z,11.47
2022-09-25T03:02:53.725Z,11.48
2022-09-25T03:05:21.430Z,11.47
2022-09-25T03:08:03.391Z,11.46
2022-09-25T03:10:33.897Z,11.50
2022-09-25T03:13:17.581Z,11.49
2022-09-25T03:15:47.091Z,11.47
2022-09-25T03:18:14.787Z,11.48
2022-09-25T03:20:41.431Z,11.47
2022-09-25T03:23:08.009Z,11.50
2022-09-25T03:25:34.705Z,11.52
2022-09-25T03:28:01.503Z,11.49
2022-09-25T03:30:29.387Z,11.48
2022-09-25T03:32:56.236Z,11.45
2022-09-25T03:35:23.068Z,11.42
2022-09-25T03:37:49.746Z,11.39
2022-09-25T03:40:16.434Z,11.43
2022-09-25T03:42:44.064Z,11.45
2022-09-25T03:45:11.517Z,11.48
2022-09-25T03:47:38.435Z,11.48
2022-09-25T03:50:05.448Z,11.51
2022-09-25T03:52:32.051Z,11.50
2022-09-25T03:54:58.675Z,11.51
2022-09-25T03:57:25.928Z,11.52
2022-09-25T03:59:52.769Z,11.47
2022-09-25T04:02:19.665Z,11.42
2022-09-25T04:04:46.502Z,11.45
2022-09-25T04:07:13.356Z,11.44
2022-09-25T04:09:40.139Z,11.43
2022-09-25T04:12:07.440Z,11.41
2022-09-25T04:14:34.049Z,11.41
2022-09-25T04:17:00.715Z,11.40
2022-09-25T04:19:27.309Z,11.40
2022-09-25T04:21:53.921Z,11.39
2022-09-25T04:24:35.753Z,11.37
2022-09-25T04:27:02.359Z,11.35
2022-09-25T04:29:29.093Z,11.33
2022-09-25T04:32:12.061Z,11.33
2022-09-25T04:34:38.690Z,11.29
2022-09-25T04:37:05.315Z,11.28
2022-09-25T04:39:31.966Z,11.28
2022-09-25T04:41:58.613Z,11.29
2022-09-25T04:44:25.222Z,11.29
2022-09-25T04:46:52.551Z,11.28
2022-09-25T04:49:19.264Z,11.30
2022-09-25T04:51:45.926Z,11.30
2022-09-25T04:54:14.890Z,11.29
2022-09-25T04:56:43.389Z,11.26
2022-09-25T04:59:11.831Z,11.26
2022-09-25T05:01:39.021Z,11.24
2022-09-25T05:04:08.680Z,11.27
2022-09-25T05:06:35.650Z,11.28
2022-09-25T05:09:03.221Z,11.26
2022-09-25T05:11:29.917Z,11.23
2022-09-25T05:13:56.502Z,11.21
2022-09-25T05:16:23.155Z,11.25
2022-09-25T05:18:49.824Z,11.27
2022-09-25T05:21:16.458Z,11.28
2022-09-25T05:23:43.053Z,11.29
2022-09-25T05:26:10.969Z,11.30
2022-09-25T05:28:37.655Z,11.31
2022-09-25T05:31:05.568Z,11.34
2022-09-25T05:33:33.951Z,11.33
2022-09-25T05:36:02.704Z,11.33
2022-09-25T05:38:31.441Z,11.35
2022-09-25T05:41:03.581Z,11.36
2022-09-25T05:43:31.428Z,11.34
2022-09-25T05:45:58.840Z,11.35
2022-09-25T05:48:26.069Z,11.39
2022-09-25T05:50:57.348Z,11.40
2022-09-25T05:53:28.312Z,11.40
2022-09-25T05:55:58.319Z,11.42
2022-09-25T05:58:26.814Z,11.49
2022-09-25T06:00:54.991Z,11.46
2022-09-25T06:03:22.211Z,11.47
2022-09-25T06:05:48.959Z,11.50
2022-09-25T06:08:15.582Z,11.46
2022-09-25T06:10:42.668Z,11.47
2022-09-25T06:13:09.327Z,11.47
2022-09-25T06:15:38.598Z,11.48
2022-09-25T06:18:06.058Z,11.50
2022-09-25T06:20:33.205Z,11.53
2022-09-25T06:23:01.375Z,11.55
2022-09-25T06:25:30.590Z,11.61
2022-09-25T06:28:00.705Z,11.66
2022-09-25T06:30:34.507Z,11.71
2022-09-25T06:33:02.030Z,11.72
2022-09-25T06:35:29.485Z,11.81
2022-09-25T06:37:58.760Z,11.86
2022-09-25T06:40:29.181Z,11.85
2022-09-25T06:42:57.378Z,11.82
2022-09-25T06:45:25.437Z,11.89
2022-09-25T06:47:52.334Z,11.87
2022-09-25T06:50:18.951Z,11.95
2022-09-25T06:52:45.553Z,11.95
2022-09-25T06:55:12.139Z,11.96
2022-09-25T06:57:38.799Z,12.00
2022-09-25T07:00:06.420Z,12.01
2022-09-25T07:02:48.585Z,12.02
2022-09-25T07:05:18.722Z,12.05
2022-09-25T07:07:46.437Z,12.10
2022-09-25T07:10:13.103Z,12.15
2022-09-25T07:12:41.441Z,12.29
2022-09-25T07:15:08.830Z,12.33
2022-09-25T07:17:35.444Z,12.33
2022-09-25T07:20:02.550Z,12.44
2022-09-25T07:22:30.407Z,12.50
2022-09-25T07:24:57.044Z,12.65
2022-09-25T07:27:23.645Z,12.65
2022-09-25T07:29:51.849Z,12.61
2022-09-25T07:32:18.502Z,12.65
2022-09-25T07:34:45.138Z,12.64
2022-09-25T07:37:12.455Z,12.68
2022-09-25T07:39:39.062Z,12.71
2022-09-25T07:42:06.895Z,12.75
2022-09-25T07:44:38.010Z,12.81
2022-09-25T07:47:07.308Z,12.83
2022-09-25T07:49:35.033Z,12.84
2022-09-25T07:52:02.337Z,12.92
2022-09-25T07:54:28.923Z,12.91
2022-09-25T07:56:55.682Z,12.91
2022-09-25T07:59:22.275Z,12.91
2022-09-25T08:01:53.651Z,12.93
2022-09-25T08:04:20.513Z,13.02
2022-09-25T08:06:47.108Z,13.10
2022-09-25T08:09:13.702Z,13.30
2022-09-25T08:11:40.509Z,13.54
2022-09-25T08:14:07.210Z,13.75
2022-09-25T08:16:33.973Z,13.89
2022-09-25T08:19:01.741Z,13.92
2022-09-25T08:21:28.323Z,13.90
2022-09-25T08:23:56.514Z,13.94
2022-09-25T08:26:23.843Z,14.02
2022-09-25T08:28:51.844Z,14.27
2022-09-25T08:31:18.548Z,14.37
2022-09-25T08:33:46.841Z,14.57
2022-09-25T08:36:13.864Z,14.51
2022-09-25T08:38:40.695Z,14.51
2022-09-25T08:41:22.203Z,14.34
2022-09-25T08:44:19.843Z,14.33
2022-09-25T08:47:06.943Z,14.41
2022-09-25T08:49:40.032Z,14.44
2022-09-25T08:52:13.658Z,14.38
2022-09-25T08:54:43.410Z,14.48
2022-09-25T08:57:21.339Z,14.48
2022-09-25T08:59:59.788Z,14.44
2022-09-25T09:02:38.616Z,14.42
2022-09-25T09:05:14.525Z,14.49
2022-09-25T09:07:46.373Z,14.43
2022-09-25T09:10:43.377Z,14.41
2022-09-25T09:13:36.881Z,14.31
2022-09-25T09:16:08.471Z,14.23
2022-09-25T09:18:40.612Z,14.20
2022-09-25T09:21:12.714Z,14.23
2022-09-25T09:23:53.594Z,14.37
2022-09-25T09:26:23.196Z,14.33
2022-09-25T09:29:09.678Z,14.27
2022-09-25T09:31:52.471Z,14.21
2022-09-25T09:35:04.249Z,14.15
2022-09-25T09:37:49.976Z,14.24
2022-09-25T09:40:40.995Z,14.23
2022-09-25T09:43:23.184Z,14.32
2022-09-25T09:45:59.008Z,14.40
2022-09-25T09:48:34.633Z,14.46
2022-09-25T09:51:14.447Z,14.48
2022-09-25T09:53:53.176Z,14.61
2022-09-25T09:56:35.927Z,14.63
2022-09-25T09:59:20.852Z,14.73
2022-09-25T10:02:00.811Z,14.83
2022-09-25T10:04:34.253Z,14.77
2022-09-25T10:07:09.812Z,14.65
2022-09-25T10:09:37.435Z,14.69
2022-09-25T10:12:12.390Z,14.70
2022-09-25T10:14:44.784Z,14.80
2022-09-25T10:17:12.069Z,14.76
2022-09-25T10:19:49.021Z,14.78
2022-09-25T10:22:19.367Z,15.05
2022-09-25T10:25:02.511Z,15.14
2022-09-25T10:27:36.932Z,14.99
2022-09-25T10:30:16.278Z,14.92
2022-09-25T10:33:04.184Z,15.08
2022-09-25T10:35:43.413Z,15.09
2022-09-25T10:38:28.545Z,15.28
2022-09-25T10:41:00.342Z,15.25
2022-09-25T10:43:26.973Z,15.21
2022-09-25T10:46:12.550Z,15.22
2022-09-25T10:48:55.754Z,15.24
2022-09-25T10:51:23.526Z,15.31
2022-09-25T10:53:53.216Z,15.36
2022-09-25T10:56:22.840Z,15.52
2022-09-25T10:58:55.769Z,15.58
2022-09-25T11:01:35.405Z,15.73
2022-09-25T11:04:12.204Z,16.04
2022-09-25T11:06:45.793Z,16.14
2022-09-25T11:09:16.438Z,16.24
2022-09-25T11:11:46.053Z,16.42
2022-09-25T11:14:32.799Z,16.46
2022-09-25T11:17:02.151Z,16.56
2022-09-25T11:19:35.567Z,16.41
2022-09-25T11:22:07.964Z,16.39
2022-09-25T11:25:00.861Z,16.33
2022-09-25T11:27:42.897Z,16.40
2022-09-25T11:30:12.476Z,16.41
2022-09-25T11:33:01.748Z,16.29
2022-09-25T11:35:44.803Z,16.40
2022-09-25T11:38:42.250Z,16.42
2022-09-25T11:41:22.971Z,16.53
2022-09-25T11:44:06.138Z,16.83
2022-09-25T11:46:35.589Z,16.98
2022-09-25T11:49:16.216Z,16.92
2022-09-25T11:52:16.475Z,16.92
2022-09-25T11:55:14.858Z,16.98
2022-09-25T11:58:02.372Z,17.13
2022-09-25T12:00:51.756Z,17.09
2022-09-25T12:03:51.181Z,17.16
2022-09-25T12:06:32.542Z,16.96
2022-09-25T12:09:29.588Z,17.28
2022-09-25T12:12:11.587Z,17.41
2022-09-25T12:14:45.716Z,17.53
2022-09-25T12:17:33.418Z,17.37
2022-09-25T12:20:11.634Z,17.35
2022-09-25T12:23:00.230Z,17.26
2022-09-25T12:25:57.685Z,17.23
2022-09-25T12:28:41.614Z,17.07
2022-09-25T12:31:17.527Z,17.07
2022-09-25T12:34:00.351Z,17.03
2022-09-25T12:36:36.623Z,17.02
2022-09-25T12:39:14.131Z,17.20
2022-09-25T12:41:52.112Z,17.17
2022-09-25T12:44:20.491Z,17.11
2022-09-25T12:47:01.938Z,17.00
2022-09-25T12:49:40.364Z,17.14
2022-09-25T12:52:14.661Z,17.14
2022-09-25T12:54:52.154Z,17.05
2022-09-25T12:57:28.046Z,17.14
2022-09-25T13:00:03.880Z,17.09
2022-09-25T13:02:43.922Z,17.21
2022-09-25T13:05:21.700Z,17.00
2022-09-25T13:08:03.311Z,17.12
2022-09-25T13:10:37.107Z,16.94
2022-09-25T13:13:12.899Z,16.93
2022-09-25T13:15:42.479Z,16.85
2022-09-25T13:18:17.490Z,17.01
2022-09-25T13:20:49.663Z,17.02
2022-09-25T13:23:33.855Z,17.06
2022-09-25T13:26:09.009Z,17.10
2022-09-25T13:28:40.533Z,17.22
2022-09-25T13:31:23.835Z,17.43
2022-09-25T13:33:52.581Z,17.33
2022-09-25T13:36:47.645Z,17.33
2022-09-25T13:39:32.933Z,17.33
2022-09-25T13:42:07.893Z,17.28
2022-09-25T13:44:52.540Z,17.39
2022-09-25T13:47:34.141Z,17.33
2022-09-25T13:50:19.176Z,17.37
2022-09-25T13:53:08.918Z,17.28
2022-09-25T13:56:02.850Z,17.27
2022-09-25T13:58:51.519Z,17.21
2022-09-25T14:01:35.597Z,17.21
2022-09-25T14:04:10.216Z,17.14
2022-09-25T14:06:42.055Z,17.04
2022-09-25T14:09:12.773Z,17.08
2022-09-25T14:11:43.227Z,17.08
2022-09-25T14:14:15.876Z,17.09
2022-09-25T14:16:49.401Z,17.10
2022-09-25T14:19:34.798Z,17.25
2022-09-25T14:22:04.482Z,17.19
2022-09-25T14:24:32.016Z,17.20
2022-09-25T14:27:01.643Z,17.15
2022-09-25T14:29:38.953Z,17.18
2022-09-25T14:32:53.507Z,17.11
2022-09-25T14:35:12.046Z,17.12
2022-09-25T14:37:56.663Z,17.03
2022-09-25T14:40:33.963Z,17.13
2022-09-25T14:43:20.507Z,17.05
2022-09-25T14:46:04.461Z,16.99
2022-09-25T14:48:39.419Z,16.96
2022-09-25T14:51:11.067Z,16.98
2022-09-25T14:53:42.626Z,16.91
2022-09-25T14:56:14.810Z,16.86
2022-09-25T14:58:47.088Z,16.82
2022-09-25T15:01:23.042Z,16.79
2022-09-25T15:03:50.215Z,16.84
2022-09-25T15:06:26.200Z,16.84
2022-09-25T15:08:53.048Z,16.84
2022-09-25T15:11:21.749Z,16.91
2022-09-25T15:13:48.689Z,17.06
2022-09-25T15:16:36.590Z,17.04
2022-09-25T15:19:11.584Z,17.03
2022-09-25T15:21:42.665Z,16.95
2022-09-25T15:24:24.508Z,16.94
2022-09-25T15:27:02.648Z,16.91
2022-09-25T15:29:33.466Z,16.87
2022-09-25T15:32:00.699Z,16.87
2022-09-25T15:34:30.225Z,16.81
2022-09-25T15:37:29.176Z,16.79
2022-09-25T15:39:56.542Z,16.74
2022-09-25T15:42:23.203Z,16.73
2022-09-25T15:44:50.069Z,16.68
2022-09-25T15:47:50.492Z,16.61
2022-09-25T15:50:23.876Z,16.58
2022-09-25T15:52:54.010Z,16.52
2022-09-25T15:55:21.397Z,16.44
2022-09-25T15:57:51.262Z,16.41
2022-09-25T16:00:36.510Z,16.39
2022-09-25T16:03:30.119Z,16.38
2022-09-25T16:05:56.780Z,16.34
2022-09-25T16:08:24.398Z,16.37
2022-09-25T16:11:12.747Z,16.34
2022-09-25T16:13:43.617Z,16.30
2022-09-25T16:16:29.571Z,16.25
2022-09-25T16:18:59.054Z,16.15
2022-09-25T16:21:25.863Z,16.10
2022-09-25T16:23:58.623Z,16.04
2022-09-25T16:26:36.270Z,16.03
2022-09-25T16:29:20.753Z,15.97
2022-09-25T16:31:48.056Z,15.96
2022-09-25T16:34:25.861Z,15.92
2022-09-25T16:36:55.719Z,15.90
2022-09-25T16:39:24.758Z,15.88
2022-09-25T16:41:51.945Z,15.85
2022-09-25T16:44:18.560Z,15.75
2022-09-25T16:47:07.687Z,15.67
2022-09-25T16:49:34.625Z,15.62
2022-09-25T16:52:05.522Z,15.58
2022-09-25T16:54:33.352Z,15.52
2022-09-25T16:57:02.296Z,15.45
2022-09-25T16:59:29.190Z,15.43
2022-09-25T17:01:59.436Z,15.41
2022-09-25T17:04:28.486Z,15.40
2022-09-25T17:06:58.045Z,15.37
2022-09-25T17:09:26.213Z,15.33
2022-09-25T17:11:59.345Z,15.31
2022-09-25T17:14:28.675Z,15.27
2022-09-25T17:16:56.552Z,15.26
2022-09-25T17:19:23.928Z,15.24
2022-09-25T17:21:53.080Z,15.23
2022-09-25T17:24:23.824Z,15.20
2022-09-25T17:26:51.992Z,15.20
2022-09-25T17:29:20.028Z,15.18
2022-09-25T17:31:46.734Z,15.18
2022-09-25T17:34:19.836Z,15.17
2022-09-25T17:36:46.642Z,15.18
2022-09-25T17:39:13.623Z,15.22
2022-09-25T17:41:40.543Z,15.18
2022-09-25T17:44:11.342Z,15.11
2022-09-25T17:46:38.896Z,15.04
2022-09-25T17:49:05.995Z,14.96
2022-09-25T17:51:34.395Z,14.92
2022-09-25T17:54:02.766Z,14.89
2022-09-25T17:56:34.692Z,14.79
2022-09-25T17:59:02.403Z,14.75
2022-09-25T18:01:35.354Z,14.71
2022-09-25T18:04:20.228Z,14.64
2022-09-25T18:06:47.483Z,14.60
2022-09-25T18:09:14.238Z,14.56
2022-09-25T18:11:43.535Z,14.57
2022-09-25T18:14:12.533Z,14.50
2022-09-25T18:16:41.623Z,14.47
2022-09-25T18:19:30.866Z,14.56
2022-09-25T18:22:12.653Z,14.55
2022-09-25T18:24:40.005Z,14.50
2022-09-25T18:27:06.687Z,14.45
2022-09-25T18:29:36.266Z,14.40
2022-09-25T18:32:03.087Z,14.42
2022-09-25T18:34:29.793Z,14.39
2022-09-25T18:36:56.426Z,14.36
2022-09-25T18:39:23.209Z,14.33
2022-09-25T18:41:50.615Z,14.37
2022-09-25T18:44:18.052Z,14.33
2022-09-25T18:46:45.073Z,14.31
2022-09-25T18:49:11.947Z,14.29
2022-09-25T18:51:38.727Z,14.29
2022-09-25T18:54:05.873Z,14.32
2022-09-25T18:56:34.643Z,14.25
2022-09-25T18:59:05.571Z,14.22
2022-09-25T19:01:33.131Z,14.25
2022-09-25T19:03:59.837Z,14.23
2022-09-25T19:06:26.521Z,14.23
2022-09-25T19:08:55.934Z,14.21
2022-09-25T19:11:24.887Z,14.15
2022-09-25T19:13:51.735Z,14.16
2022-09-25T19:16:20.361Z,14.12
2022-09-25T19:18:47.389Z,14.10
2022-09-25T19:21:16.310Z,14.08
2022-09-25T19:23:43.666Z,14.06
2022-09-25T19:26:15.077Z,14.05
2022-09-25T19:28:41.942Z,13.96
2022-09-25T19:31:15.621Z,13.92
2022-09-25T19:33:42.644Z,13.87
2022-09-25T19:36:15.454Z,13.77
2022-09-25T19:38:43.437Z,13.70
2022-09-25T19:41:13.226Z,13.60
2022-09-25T19:43:39.915Z,13.57
2022-09-25T19:46:06.861Z,13.55
2022-09-25T19:48:33.858Z,13.54
2022-09-25T19:51:06.541Z,13.51
2022-09-25T19:53:34.427Z,13.46
2022-09-25T19:56:01.435Z,13.37
2022-09-25T19:58:28.559Z,13.32
2022-09-25T20:00:56.886Z,13.36
2022-09-25T20:03:23.873Z,13.32
2022-09-25T20:05:50.820Z,13.30
2022-09-25T20:08:17.537Z,13.30
2022-09-25T20:10:44.723Z,13.28
2022-09-25T20:13:11.769Z,13.30
2022-09-25T20:15:38.519Z,13.31
2022-09-25T20:18:05.498Z,13.26
2022-09-25T20:20:32.169Z,13.28
2022-09-25T20:22:59.084Z,13.29
2022-09-25T20:25:28.053Z,13.29
2022-09-25T20:27:55.212Z,13.26
2022-09-25T20:30:24.366Z,13.26
2022-09-25T20:32:51.958Z,13.27
2022-09-25T20:35:22.512Z,13.25
2022-09-25T20:37:49.141Z,13.20
2022-09-25T20:40:15.994Z,13.21
2022-09-25T20:42:42.993Z,13.20
2022-09-25T20:45:10.516Z,13.14
2022-09-25T20:47:45.113Z,13.19
2022-09-25T20:50:13.007Z,13.16
2022-09-25T20:52:40.006Z,13.16
2022-09-25T20:55:07.213Z,13.15
2022-09-25T20:57:34.022Z,13.16
2022-09-25T21:00:02.150Z,13.16
2022-09-25T21:02:29.459Z,13.16
2022-09-25T21:04:57.043Z,13.17
2022-09-25T21:07:25.596Z,13.16
2022-09-25T21:09:53.784Z,13.15
2022-09-25T21:12:21.493Z,13.12
2022-09-25T21:14:49.354Z,13.10
2022-09-25T21:17:17.145Z,13.18
2022-09-25T21:19:44.186Z,13.18
2022-09-25T21:22:11.088Z,13.13
2022-09-25T21:24:37.930Z,13.09
2022-09-25T21:27:04.570Z,13.08
2022-09-25T21:29:32.026Z,13.06
2022-09-25T21:31:58.823Z,12.98
2022-09-25T21:34:26.542Z,12.90
2022-09-25T21:36:53.185Z,12.91
2022-09-25T21:39:21.181Z,12.90
2022-09-25T21:41:48.497Z,12.89
2022-09-25T21:44:20.461Z,12.86
2022-09-25T21:46:47.122Z,12.88
2022-09-25T21:49:17.257Z,12.88
2022-09-25T21:51:45.639Z,12.84
2022-09-25T21:54:16.687Z,12.78
2022-09-25T21:56:48.701Z,12.80
2022-09-25T21:59:15.621Z,12.71
2022-09-25T22:01:42.972Z,12.70
2022-09-25T22:04:13.482Z,12.70
2022-09-25T22:06:44.466Z,12.73
2022-09-25T22:09:15.463Z,12.67
2022-09-25T22:11:43.388Z,12.62
2022-09-25T22:14:15.520Z,12.70
2022-09-25T22:16:44.521Z,12.62
2022-09-25T22:19:30.744Z,12.56
2022-09-25T22:21:59.348Z,12.57
2022-09-25T22:24:26.715Z,12.56
2022-09-25T22:26:54.699Z,12.53
2022-09-25T22:29:21.715Z,12.49
2022-09-25T22:31:48.475Z,12.70
2022-09-25T22:34:18.029Z,12.57
2022-09-25T22:36:45.026Z,12.48
2022-09-25T22:39:14.421Z,12.46
2022-09-25T22:41:41.623Z,12.45
2022-09-25T22:44:08.265Z,12.46
2022-09-25T22:46:35.020Z,12.47
2022-09-25T22:49:02.825Z,12.43
2022-09-25T22:51:29.637Z,12.43
2022-09-25T22:53:56.356Z,12.44
2022-09-25T22:56:24.820Z,12.46
2022-09-25T22:58:56.950Z,12.48
2022-09-25T23:01:26.419Z,12.44
2022-09-25T23:03:55.321Z,12.40
2022-09-25T23:06:22.651Z,12.41
2022-09-25T23:08:54.942Z,12.41
2022-09-25T23:11:22.332Z,12.42
2022-09-25T23:13:50.668Z,12.43
2022-09-25T23:16:18.504Z,12.46
2022-09-25T23:18:45.260Z,12.39
2022-09-25T23:21:11.881Z,12.34
2022-09-25T23:23:38.698Z,12.32
2022-09-25T23:26:07.189Z,12.30
2022-09-25T23:28:36.502Z,12.25
2022-09-25T23:31:08.337Z,12.24
2022-09-25T23:33:36.097Z,12.22
2022-09-25T23:36:06.301Z,12.20
2022-09-25T23:38:34.070Z,12.16
2022-09-25T23:41:01.080Z,12.18
2022-09-25T23:43:28.004Z,12.16
2022-09-25T23:45:55.755Z,12.17
2022-09-25T23:48:22.788Z,12.18
2022-09-25T23:50:51.287Z,12.16
2022-09-25T23:53:18.082Z,12.21
2022-09-25T23:55:44.743Z,12.15
2022-09-25T23:58:11.414Z,12.16
